sensor_id;sensor_type;location;lat;lon;timestamp;temperature;humidity
74661;SHT31;63191;39.566;2.654;2023-03-04T00:02:09;8.77;70.34
74661;SHT31;63191;39.566;2.654;2023-03-04T00:04:35;8.73;70.31
74661;SHT31;63191;39.566;2.654;2023-03-04T00:07:00;8.66;70.43
74661;SHT31;63191;39.566;2.654;2023-03-04T00:09:26;8.63;70.58
74661;SHT31;63191;39.566;2.654;2023-03-04T00:11:52;8.57;70.67
74661;SHT31;63191;39.566;2.654;2023-03-04T00:14:18;8.52;70.84
74661;SHT31;63191;39.566;2.654;2023-03-04T00:16:43;8.49;70.97
74661;SHT31;63191;39.566;2.654;2023-03-04T00:19:13;8.46;71.09
74661;SHT31;63191;39.566;2.654;2023-03-04T00:21:39;8.43;71.15
74661;SHT31;63191;39.566;2.654;2023-03-04T00:24:05;8.39;71.20
74661;SHT31;63191;39.566;2.654;2023-03-04T00:26:31;8.34;71.24
74661;SHT31;63191;39.566;2.654;2023-03-04T00:28:57;8.30;71.43
74661;SHT31;63191;39.566;2.654;2023-03-04T00:31:23;8.27;71.50
74661;SHT31;63191;39.566;2.654;2023-03-04T00:33:48;8.25;71.50
74661;SHT31;63191;39.566;2.654;2023-03-04T00:36:14;8.24;71.52
74661;SHT31;63191;39.566;2.654;2023-03-04T00:38:40;8.24;71.65
74661;SHT31;63191;39.566;2.654;2023-03-04T00:41:05;8.24;71.82
74661;SHT31;63191;39.566;2.654;2023-03-04T00:43:31;8.25;71.97
74661;SHT31;63191;39.566;2.654;2023-03-04T00:45:57;8.23;72.00
74661;SHT31;63191;39.566;2.654;2023-03-04T00:48:24;8.22;72.07
74661;SHT31;63191;39.566;2.654;2023-03-04T00:50:50;8.20;72.10
74661;SHT31;63191;39.566;2.654;2023-03-04T00:53:18;8.16;72.11
74661;SHT31;63191;39.566;2.654;2023-03-04T00:55:45;8.13;72.10
74661;SHT31;63191;39.566;2.654;2023-03-04T00:58:12;8.11;72.10
74661;SHT31;63191;39.566;2.654;2023-03-04T01:00:37;8.08;72.10
74661;SHT31;63191;39.566;2.654;2023-03-04T01:03:03;8.07;72.06
74661;SHT31;63191;39.566;2.654;2023-03-04T01:05:29;8.05;71.96
74661;SHT31;63191;39.566;2.654;2023-03-04T01:07:56;8.05;71.88
74661;SHT31;63191;39.566;2.654;2023-03-04T01:10:23;8.03;71.82
74661;SHT31;63191;39.566;2.654;2023-03-04T01:12:49;8.02;71.84
74661;SHT31;63191;39.566;2.654;2023-03-04T01:15:15;8.03;71.94
74661;SHT31;63191;39.566;2.654;2023-03-04T01:17:42;8.03;72.15
74661;SHT31;63191;39.566;2.654;2023-03-04T01:20:10;8.04;72.39
74661;SHT31;63191;39.566;2.654;2023-03-04T01:22:37;8.05;72.63
74661;SHT31;63191;39.566;2.654;2023-03-04T01:25:03;8.05;72.74
74661;SHT31;63191;39.566;2.654;2023-03-04T01:27:30;8.06;72.87
74661;SHT31;63191;39.566;2.654;2023-03-04T01:29:56;8.06;72.94
74661;SHT31;63191;39.566;2.654;2023-03-04T01:32:21;8.05;73.06
74661;SHT31;63191;39.566;2.654;2023-03-04T01:34:47;8.05;73.17
74661;SHT31;63191;39.566;2.654;2023-03-04T01:37:13;8.06;73.31
74661;SHT31;63191;39.566;2.654;2023-03-04T01:39:39;8.09;73.39
74661;SHT31;63191;39.566;2.654;2023-03-04T01:42:05;8.13;73.40
74661;SHT31;63191;39.566;2.654;2023-03-04T01:44:45;8.19;73.42
74661;SHT31;63191;39.566;2.654;2023-03-04T01:47:13;8.26;73.36
74661;SHT31;63191;39.566;2.654;2023-03-04T01:49:39;8.31;73.19
74661;SHT31;63191;39.566;2.654;2023-03-04T01:52:07;8.35;73.06
74661;SHT31;63191;39.566;2.654;2023-03-04T01:54:37;8.40;73.49
74661;SHT31;63191;39.566;2.654;2023-03-04T01:57:23;8.44;74.10
74661;SHT31;63191;39.566;2.654;2023-03-04T02:02:39;8.51;74.69
74661;SHT31;63191;39.566;2.654;2023-03-04T02:05:05;8.49;74.80
74661;SHT31;63191;39.566;2.654;2023-03-04T02:07:31;8.45;74.71
74661;SHT31;63191;39.566;2.654;2023-03-04T02:09:58;8.42;74.83
74661;SHT31;63191;39.566;2.654;2023-03-04T02:12:26;8.40;75.04
74661;SHT31;63191;39.566;2.654;2023-03-04T02:14:51;8.37;75.12
74661;SHT31;63191;39.566;2.654;2023-03-04T02:17:22;8.33;75.05
74661;SHT31;63191;39.566;2.654;2023-03-04T02:23:13;8.22;74.87
74661;SHT31;63191;39.566;2.654;2023-03-04T02:28:37;8.16;75.57
74661;SHT31;63191;39.566;2.654;2023-03-04T02:31:02;8.16;75.69
74661;SHT31;63191;39.566;2.654;2023-03-04T02:33:30;8.13;75.62
74661;SHT31;63191;39.566;2.654;2023-03-04T02:35:57;8.09;75.53
74661;SHT31;63191;39.566;2.654;2023-03-04T02:38:23;8.06;75.69
74661;SHT31;63191;39.566;2.654;2023-03-04T02:40:50;8.02;75.84
74661;SHT31;63191;39.566;2.654;2023-03-04T02:43:18;8.00;75.90
74661;SHT31;63191;39.566;2.654;2023-03-04T02:45:45;7.98;75.93
74661;SHT31;63191;39.566;2.654;2023-03-04T02:48:15;7.95;76.00
74661;SHT31;63191;39.566;2.654;2023-03-04T02:50:46;7.92;76.16
74661;SHT31;63191;39.566;2.654;2023-03-04T02:53:15;7.90;76.35
74661;SHT31;63191;39.566;2.654;2023-03-04T02:55:41;7.87;76.41
74661;SHT31;63191;39.566;2.654;2023-03-04T02:58:09;7.83;76.56
74661;SHT31;63191;39.566;2.654;2023-03-04T03:00:36;7.80;76.57
74661;SHT31;63191;39.566;2.654;2023-03-04T03:03:02;7.77;76.57
74661;SHT31;63191;39.566;2.654;2023-03-04T03:05:29;7.75;76.83
74661;SHT31;63191;39.566;2.654;2023-03-04T03:07:57;7.75;77.03
74661;SHT31;63191;39.566;2.654;2023-03-04T03:10:23;7.72;77.00
74661;SHT31;63191;39.566;2.654;2023-03-04T03:12:49;7.69;77.06
74661;SHT31;63191;39.566;2.654;2023-03-04T03:15:15;7.70;77.19
74661;SHT31;63191;39.566;2.654;2023-03-04T03:17:41;7.68;77.11
74661;SHT31;63191;39.566;2.654;2023-03-04T03:20:08;7.65;77.05
74661;SHT31;63191;39.566;2.654;2023-03-04T03:22:37;7.59;77.11
74661;SHT31;63191;39.566;2.654;2023-03-04T03:25:04;7.55;77.22
74661;SHT31;63191;39.566;2.654;2023-03-04T03:27:31;7.50;77.38
74661;SHT31;63191;39.566;2.654;2023-03-04T03:29:57;7.49;77.40
74661;SHT31;63191;39.566;2.654;2023-03-04T03:32:23;7.47;77.40
74661;SHT31;63191;39.566;2.654;2023-03-04T03:34:49;7.44;77.47
74661;SHT31;63191;39.566;2.654;2023-03-04T03:37:15;7.45;77.55
74661;SHT31;63191;39.566;2.654;2023-03-04T03:39:41;7.43;77.61
74661;SHT31;63191;39.566;2.654;2023-03-04T03:42:06;7.41;77.70
74661;SHT31;63191;39.566;2.654;2023-03-04T03:44:32;7.41;77.75
74661;SHT31;63191;39.566;2.654;2023-03-04T03:46:58;7.38;77.70
74661;SHT31;63191;39.566;2.654;2023-03-04T03:49:24;7.35;77.62
74661;SHT31;63191;39.566;2.654;2023-03-04T03:51:51;7.33;77.54
74661;SHT31;63191;39.566;2.654;2023-03-04T03:54:17;7.30;77.37
74661;SHT31;63191;39.566;2.654;2023-03-04T03:56:42;7.29;77.30
74661;SHT31;63191;39.566;2.654;2023-03-04T03:59:08;7.27;77.27
74661;SHT31;63191;39.566;2.654;2023-03-04T04:01:34;7.26;77.29
74661;SHT31;63191;39.566;2.654;2023-03-04T04:04:00;7.25;77.30
74661;SHT31;63191;39.566;2.654;2023-03-04T04:06:25;7.24;77.21
74661;SHT31;63191;39.566;2.654;2023-03-04T04:08:51;7.25;77.18
74661;SHT31;63191;39.566;2.654;2023-03-04T04:11:17;7.24;77.06
74661;SHT31;63191;39.566;2.654;2023-03-04T04:13:43;7.24;77.00
74661;SHT31;63191;39.566;2.654;2023-03-04T04:16:09;7.23;77.08
74661;SHT31;63191;39.566;2.654;2023-03-04T04:18:35;7.23;77.25
74661;SHT31;63191;39.566;2.654;2023-03-04T04:21:02;7.22;77.44
74661;SHT31;63191;39.566;2.654;2023-03-04T04:23:29;7.22;77.58
74661;SHT31;63191;39.566;2.654;2023-03-04T04:25:55;7.21;77.74
74661;SHT31;63191;39.566;2.654;2023-03-04T04:28:21;7.19;77.93
74661;SHT31;63191;39.566;2.654;2023-03-04T04:30:48;7.16;77.99
74661;SHT31;63191;39.566;2.654;2023-03-04T04:33:14;7.13;78.04
74661;SHT31;63191;39.566;2.654;2023-03-04T04:35:40;7.10;78.13
74661;SHT31;63191;39.566;2.654;2023-03-04T04:38:06;7.08;78.31
74661;SHT31;63191;39.566;2.654;2023-03-04T04:40:33;7.11;78.74
74661;SHT31;63191;39.566;2.654;2023-03-04T04:43:01;7.14;78.95
74661;SHT31;63191;39.566;2.654;2023-03-04T04:45:27;7.17;78.87
74661;SHT31;63191;39.566;2.654;2023-03-04T04:47:53;7.18;78.79
74661;SHT31;63191;39.566;2.654;2023-03-04T04:50:22;7.19;78.68
74661;SHT31;63191;39.566;2.654;2023-03-04T04:52:49;7.17;78.60
74661;SHT31;63191;39.566;2.654;2023-03-04T04:55:15;7.16;78.70
74661;SHT31;63191;39.566;2.654;2023-03-04T04:57:41;7.14;78.74
74661;SHT31;63191;39.566;2.654;2023-03-04T05:00:08;7.11;78.77
74661;SHT31;63191;39.566;2.654;2023-03-04T05:02:35;7.07;78.85
74661;SHT31;63191;39.566;2.654;2023-03-04T05:05:02;7.03;78.98
74661;SHT31;63191;39.566;2.654;2023-03-04T05:07:29;6.99;79.09
74661;SHT31;63191;39.566;2.654;2023-03-04T05:09:55;6.95;79.26
74661;SHT31;63191;39.566;2.654;2023-03-04T05:12:21;6.93;79.39
74661;SHT31;63191;39.566;2.654;2023-03-04T05:14:47;6.87;79.47
74661;SHT31;63191;39.566;2.654;2023-03-04T05:17:12;6.84;79.57
74661;SHT31;63191;39.566;2.654;2023-03-04T05:19:38;6.86;79.78
74661;SHT31;63191;39.566;2.654;2023-03-04T05:22:04;6.87;79.89
74661;SHT31;63191;39.566;2.654;2023-03-04T05:24:29;6.89;79.90
74661;SHT31;63191;39.566;2.654;2023-03-04T05:26:55;6.91;79.86
74661;SHT31;63191;39.566;2.654;2023-03-04T05:29:22;6.91;79.80
74661;SHT31;63191;39.566;2.654;2023-03-04T05:31:48;6.90;79.80
74661;SHT31;63191;39.566;2.654;2023-03-04T05:34:15;6.92;79.88
74661;SHT31;63191;39.566;2.654;2023-03-04T05:36:40;6.90;79.94
74661;SHT31;63191;39.566;2.654;2023-03-04T05:39:06;6.88;79.98
74661;SHT31;63191;39.566;2.654;2023-03-04T05:41:32;6.86;80.00
74661;SHT31;63191;39.566;2.654;2023-03-04T05:43:58;6.83;80.00
74661;SHT31;63191;39.566;2.654;2023-03-04T05:46:24;6.81;80.00
74661;SHT31;63191;39.566;2.654;2023-03-04T05:48:50;6.80;80.06
74661;SHT31;63191;39.566;2.654;2023-03-04T05:51:19;6.78;80.15
74661;SHT31;63191;39.566;2.654;2023-03-04T05:53:46;6.81;80.19
74661;SHT31;63191;39.566;2.654;2023-03-04T05:56:14;6.84;80.11
74661;SHT31;63191;39.566;2.654;2023-03-04T05:58:43;6.87;80.10
74661;SHT31;63191;39.566;2.654;2023-03-04T06:01:11;6.91;80.10
74661;SHT31;63191;39.566;2.654;2023-03-04T06:03:39;6.92;80.04
74661;SHT31;63191;39.566;2.654;2023-03-04T06:06:08;6.95;79.97
74661;SHT31;63191;39.566;2.654;2023-03-04T06:08:37;6.95;79.81
74661;SHT31;63191;39.566;2.654;2023-03-04T06:11:03;6.93;79.67
74661;SHT31;63191;39.566;2.654;2023-03-04T06:13:29;6.93;79.59
74661;SHT31;63191;39.566;2.654;2023-03-04T06:15:56;6.94;79.49
74661;SHT31;63191;39.566;2.654;2023-03-04T06:18:24;6.96;79.39
74661;SHT31;63191;39.566;2.654;2023-03-04T06:20:58;6.99;79.31
74661;SHT31;63191;39.566;2.654;2023-03-04T06:23:26;7.03;79.30
74661;SHT31;63191;39.566;2.654;2023-03-04T06:25:52;7.09;79.28
74661;SHT31;63191;39.566;2.654;2023-03-04T06:28:20;7.13;79.20
74661;SHT31;63191;39.566;2.654;2023-03-04T06:30:46;7.17;79.18
74661;SHT31;63191;39.566;2.654;2023-03-04T06:33:12;7.22;79.08
74661;SHT31;63191;39.566;2.654;2023-03-04T06:35:37;7.26;78.94
74661;SHT31;63191;39.566;2.654;2023-03-04T06:38:03;7.32;78.83
74661;SHT31;63191;39.566;2.654;2023-03-04T06:40:29;7.37;78.71
74661;SHT31;63191;39.566;2.654;2023-03-04T06:42:55;7.46;78.55
74661;SHT31;63191;39.566;2.654;2023-03-04T06:45:20;7.61;78.40
74661;SHT31;63191;39.566;2.654;2023-03-04T06:47:46;7.81;78.18
74661;SHT31;63191;39.566;2.654;2023-03-04T06:50:12;8.05;77.96
74661;SHT31;63191;39.566;2.654;2023-03-04T06:52:38;8.29;77.68
74661;SHT31;63191;39.566;2.654;2023-03-04T06:55:06;8.73;77.08
74661;SHT31;63191;39.566;2.654;2023-03-04T06:57:33;9.23;76.28
74661;SHT31;63191;39.566;2.654;2023-03-04T06:59:58;9.68;75.64
74661;SHT31;63191;39.566;2.654;2023-03-04T07:02:24;10.24;74.75
74661;SHT31;63191;39.566;2.654;2023-03-04T07:04:50;10.84;73.69
74661;SHT31;63191;39.566;2.654;2023-03-04T07:07:17;11.44;72.60
74661;SHT31;63191;39.566;2.654;2023-03-04T07:09:43;12.05;71.41
74661;SHT31;63191;39.566;2.654;2023-03-04T07:12:09;12.71;69.91
74661;SHT31;63191;39.566;2.654;2023-03-04T07:14:35;13.35;68.23
74661;SHT31;63191;39.566;2.654;2023-03-04T07:17:01;13.90;66.33
74661;SHT31;63191;39.566;2.654;2023-03-04T07:19:27;14.43;64.52
74661;SHT31;63191;39.566;2.654;2023-03-04T07:21:52;14.96;62.77
74661;SHT31;63191;39.566;2.654;2023-03-04T07:24:18;15.48;61.34
74661;SHT31;63191;39.566;2.654;2023-03-04T07:26:48;16.03;59.87
74661;SHT31;63191;39.566;2.654;2023-03-04T07:29:14;16.59;58.38
74661;SHT31;63191;39.566;2.654;2023-03-04T07:31:40;17.17;56.87
74661;SHT31;63191;39.566;2.654;2023-03-04T07:34:06;17.72;55.43
74661;SHT31;63191;39.566;2.654;2023-03-04T07:36:40;18.25;53.87
74661;SHT31;63191;39.566;2.654;2023-03-04T07:39:06;18.75;52.22
74661;SHT31;63191;39.566;2.654;2023-03-04T07:41:33;19.14;50.84
74661;SHT31;63191;39.566;2.654;2023-03-04T07:44:02;19.52;49.40
74661;SHT31;63191;39.566;2.654;2023-03-04T07:46:29;19.80;47.58
74661;SHT31;63191;39.566;2.654;2023-03-04T07:48:55;20.06;46.62
74661;SHT31;63191;39.566;2.654;2023-03-04T07:51:26;20.43;46.05
74661;SHT31;63191;39.566;2.654;2023-03-04T07:53:53;20.85;45.54
74661;SHT31;63191;39.566;2.654;2023-03-04T07:56:24;21.36;44.90
74661;SHT31;63191;39.566;2.654;2023-03-04T07:58:57;21.92;44.13
74661;SHT31;63191;39.566;2.654;2023-03-04T08:01:28;22.50;43.20
74661;SHT31;63191;39.566;2.654;2023-03-04T08:03:59;23.11;42.37
74661;SHT31;63191;39.566;2.654;2023-03-04T08:06:25;23.67;41.38
74661;SHT31;63191;39.566;2.654;2023-03-04T08:08:55;24.26;40.51
74661;SHT31;63191;39.566;2.654;2023-03-04T08:11:27;24.84;39.57
74661;SHT31;63191;39.566;2.654;2023-03-04T08:13:55;25.37;38.64
74661;SHT31;63191;39.566;2.654;2023-03-04T08:16:21;25.79;38.00
74661;SHT31;63191;39.566;2.654;2023-03-04T08:18:51;26.24;37.36
74661;SHT31;63191;39.566;2.654;2023-03-04T08:21:21;26.70;36.78
74661;SHT31;63191;39.566;2.654;2023-03-04T08:23:49;27.04;36.11
74661;SHT31;63191;39.566;2.654;2023-03-04T08:26:20;27.49;35.57
74661;SHT31;63191;39.566;2.654;2023-03-04T08:28:52;27.98;34.71
74661;SHT31;63191;39.566;2.654;2023-03-04T08:31:22;28.08;34.24
74661;SHT31;63191;39.566;2.654;2023-03-04T08:33:48;27.42;34.41
74661;SHT31;63191;39.566;2.654;2023-03-04T08:36:15;26.58;34.50
74661;SHT31;63191;39.566;2.654;2023-03-04T08:38:41;25.86;34.71
74661;SHT31;63191;39.566;2.654;2023-03-04T08:41:07;25.17;35.06
74661;SHT31;63191;39.566;2.654;2023-03-04T08:43:34;24.59;35.47
74661;SHT31;63191;39.566;2.654;2023-03-04T08:46:00;24.14;35.22
74661;SHT31;63191;39.566;2.654;2023-03-04T08:48:31;23.52;35.83
74661;SHT31;63191;39.566;2.654;2023-03-04T08:52:12;22.55;37.17
74661;SHT31;63191;39.566;2.654;2023-03-04T08:54:54;22.01;38.16
74661;SHT31;63191;39.566;2.654;2023-03-04T08:57:20;21.70;38.78
74661;SHT31;63191;39.566;2.654;2023-03-04T08:59:46;21.60;39.12
74661;SHT31;63191;39.566;2.654;2023-03-04T09:02:12;21.37;39.29
74661;SHT31;63191;39.566;2.654;2023-03-04T09:04:39;20.95;39.92
74661;SHT31;63191;39.566;2.654;2023-03-04T09:07:04;20.60;41.22
74661;SHT31;63191;39.566;2.654;2023-03-04T09:09:30;20.42;41.69
74661;SHT31;63191;39.566;2.654;2023-03-04T09:11:56;20.39;42.24
74661;SHT31;63191;39.566;2.654;2023-03-04T09:14:22;20.48;41.46
74661;SHT31;63191;39.566;2.654;2023-03-04T09:16:48;20.33;41.56
74661;SHT31;63191;39.566;2.654;2023-03-04T09:19:13;20.05;42.13
74661;SHT31;63191;39.566;2.654;2023-03-04T09:21:40;19.88;42.68
74661;SHT31;63191;39.566;2.654;2023-03-04T09:24:06;19.81;43.13
74661;SHT31;63191;39.566;2.654;2023-03-04T09:26:34;19.84;43.19
74661;SHT31;63191;39.566;2.654;2023-03-04T09:29:00;20.12;43.36
74661;SHT31;63191;39.566;2.654;2023-03-04T09:31:27;20.57;42.33
74661;SHT31;63191;39.566;2.654;2023-03-04T09:33:55;20.81;41.45
74661;SHT31;63191;39.566;2.654;2023-03-04T09:36:23;20.66;41.83
74661;SHT31;63191;39.566;2.654;2023-03-04T09:38:49;20.53;41.90
74661;SHT31;63191;39.566;2.654;2023-03-04T09:41:23;20.47;41.93
74661;SHT31;63191;39.566;2.654;2023-03-04T09:43:53;20.36;41.94
74661;SHT31;63191;39.566;2.654;2023-03-04T09:46:23;20.41;42.55
74661;SHT31;63191;39.566;2.654;2023-03-04T09:48:58;20.84;42.10
74661;SHT31;63191;39.566;2.654;2023-03-04T09:51:37;21.39;39.97
74661;SHT31;63191;39.566;2.654;2023-03-04T09:57:23;21.42;38.51
74661;SHT31;63191;39.566;2.654;2023-03-04T10:00:18;21.10;39.41
74661;SHT31;63191;39.566;2.654;2023-03-04T10:05:22;20.86;39.86
74661;SHT31;63191;39.566;2.654;2023-03-04T10:07:55;20.74;39.65
74661;SHT31;63191;39.566;2.654;2023-03-04T10:10:36;20.62;39.62
74661;SHT31;63191;39.566;2.654;2023-03-04T10:13:10;20.51;40.41
74661;SHT31;63191;39.566;2.654;2023-03-04T10:15:44;20.56;40.42
74661;SHT31;63191;39.566;2.654;2023-03-04T10:18:21;20.67;40.84
74661;SHT31;63191;39.566;2.654;2023-03-04T10:20:53;20.82;40.18
74661;SHT31;63191;39.566;2.654;2023-03-04T10:23:28;20.97;39.89
74661;SHT31;63191;39.566;2.654;2023-03-04T10:25:55;21.25;40.26
74661;SHT31;63191;39.566;2.654;2023-03-04T10:28:26;21.66;39.02
74661;SHT31;63191;39.566;2.654;2023-03-04T10:31:02;22.16;39.13
74661;SHT31;63191;39.566;2.654;2023-03-04T10:33:35;23.00;38.20
74661;SHT31;63191;39.566;2.654;2023-03-04T10:39:01;25.69;34.96
74661;SHT31;63191;39.566;2.654;2023-03-04T10:41:44;27.80;33.58
74661;SHT31;63191;39.566;2.654;2023-03-04T10:44:22;29.58;30.14
74661;SHT31;63191;39.566;2.654;2023-03-04T10:46:49;30.56;28.31
74661;SHT31;63191;39.566;2.654;2023-03-04T10:49:17;31.43;27.50
74661;SHT31;63191;39.566;2.654;2023-03-04T10:51:45;31.87;26.40
74661;SHT31;63191;39.566;2.654;2023-03-04T10:59:43;32.40;25.61
74661;SHT31;63191;39.566;2.654;2023-03-04T11:07:41;31.21;25.69
74661;SHT31;63191;39.566;2.654;2023-03-04T11:10:16;29.24;26.96
74661;SHT31;63191;39.566;2.654;2023-03-04T11:12:51;27.12;29.13
74661;SHT31;63191;39.566;2.654;2023-03-04T11:15:24;25.26;31.41
74661;SHT31;63191;39.566;2.654;2023-03-04T11:18:09;23.73;33.69
74661;SHT31;63191;39.566;2.654;2023-03-04T11:20:39;22.29;36.26
74661;SHT31;63191;39.566;2.654;2023-03-04T11:25:43;20.66;39.28
74661;SHT31;63191;39.566;2.654;2023-03-04T11:28:14;20.12;40.68
74661;SHT31;63191;39.566;2.654;2023-03-04T11:31:14;20.54;41.48
74661;SHT31;63191;39.566;2.654;2023-03-04T11:33:48;21.87;38.93
74661;SHT31;63191;39.566;2.654;2023-03-04T11:39:48;21.23;40.32
74661;SHT31;63191;39.566;2.654;2023-03-04T11:48:12;27.72;31.97
74661;SHT31;63191;39.566;2.654;2023-03-04T11:54:38;31.13;26.62
74661;SHT31;63191;39.566;2.654;2023-03-04T11:57:41;30.48;26.77
74661;SHT31;63191;39.566;2.654;2023-03-04T12:03:56;28.23;27.78
74661;SHT31;63191;39.566;2.654;2023-03-04T12:07:07;25.94;30.10
74661;SHT31;63191;39.566;2.654;2023-03-04T12:10:29;23.83;34.07
74661;SHT31;63191;39.566;2.654;2023-03-04T12:27:20;18.71;43.98
74661;SHT31;63191;39.566;2.654;2023-03-04T12:30:05;18.14;45.28
74661;SHT31;63191;39.566;2.654;2023-03-04T12:33:21;17.65;46.69
74661;SHT31;63191;39.566;2.654;2023-03-04T12:42:04;16.89;50.16
74661;SHT31;63191;39.566;2.654;2023-03-04T12:50:53;16.88;51.32
74661;SHT31;63191;39.566;2.654;2023-03-04T12:53:31;16.88;51.25
74661;SHT31;63191;39.566;2.654;2023-03-04T12:56:36;17.32;50.17
74661;SHT31;63191;39.566;2.654;2023-03-04T12:59:17;16.99;50.61
74661;SHT31;63191;39.566;2.654;2023-03-04T13:01:58;16.68;50.99
74661;SHT31;63191;39.566;2.654;2023-03-04T13:05:13;16.58;51.99
74661;SHT31;63191;39.566;2.654;2023-03-04T13:10:50;16.57;51.62
74661;SHT31;63191;39.566;2.654;2023-03-04T13:13:36;16.72;51.59
74661;SHT31;63191;39.566;2.654;2023-03-04T13:18:43;16.60;52.86
74661;SHT31;63191;39.566;2.654;2023-03-04T13:23:47;16.58;53.53
74661;SHT31;63191;39.566;2.654;2023-03-04T13:34:49;20.17;45.27
74661;SHT31;63191;39.566;2.654;2023-03-04T13:37:29;20.09;44.90
74661;SHT31;63191;39.566;2.654;2023-03-04T13:42:47;21.73;42.60
74661;SHT31;63191;39.566;2.654;2023-03-04T13:45:34;21.42;41.88
74661;SHT31;63191;39.566;2.654;2023-03-04T13:48:03;20.85;41.52
74661;SHT31;63191;39.566;2.654;2023-03-04T13:51:56;19.84;42.75
74661;SHT31;63191;39.566;2.654;2023-03-04T14:00:00;19.40;42.53
74661;SHT31;63191;39.566;2.654;2023-03-04T14:02:20;18.90;43.76
74661;SHT31;63191;39.566;2.654;2023-03-04T14:07:28;18.57;44.24
74661;SHT31;63191;39.566;2.654;2023-03-04T14:10:23;18.41;44.25
74661;SHT31;63191;39.566;2.654;2023-03-04T14:12:50;18.17;44.35
74661;SHT31;63191;39.566;2.654;2023-03-04T14:15:24;18.08;46.08
74661;SHT31;63191;39.566;2.654;2023-03-04T14:17:53;17.99;45.22
74661;SHT31;63191;39.566;2.654;2023-03-04T14:20:37;17.90;45.54
74661;SHT31;63191;39.566;2.654;2023-03-04T14:23:23;17.82;45.77
74661;SHT31;63191;39.566;2.654;2023-03-04T14:26:10;17.63;45.81
74661;SHT31;63191;39.566;2.654;2023-03-04T14:28:44;17.39;46.87
74661;SHT31;63191;39.566;2.654;2023-03-04T14:31:15;17.25;46.67
74661;SHT31;63191;39.566;2.654;2023-03-04T14:33:51;17.22;48.20
74661;SHT31;63191;39.566;2.654;2023-03-04T14:36:24;17.24;48.61
74661;SHT31;63191;39.566;2.654;2023-03-04T14:39:00;17.31;47.06
74661;SHT31;63191;39.566;2.654;2023-03-04T14:41:34;17.32;47.18
74661;SHT31;63191;39.566;2.654;2023-03-04T14:46:39;17.31;47.14
74661;SHT31;63191;39.566;2.654;2023-03-04T14:49:21;17.25;47.87
74661;SHT31;63191;39.566;2.654;2023-03-04T14:51:50;17.18;48.78
74661;SHT31;63191;39.566;2.654;2023-03-04T14:54:38;17.14;48.99
74661;SHT31;63191;39.566;2.654;2023-03-04T14:59:43;17.38;47.68
74661;SHT31;63191;39.566;2.654;2023-03-04T15:05:09;17.57;47.56
74661;SHT31;63191;39.566;2.654;2023-03-04T15:08:03;17.52;46.92
74661;SHT31;63191;39.566;2.654;2023-03-04T15:10:39;17.41;48.77
74661;SHT31;63191;39.566;2.654;2023-03-04T15:13:07;17.20;49.56
74661;SHT31;63191;39.566;2.654;2023-03-04T15:15:43;16.99;49.27
74661;SHT31;63191;39.566;2.654;2023-03-04T15:23:49;16.55;50.66
74661;SHT31;63191;39.566;2.654;2023-03-04T15:26:25;16.42;49.38
74661;SHT31;63191;39.566;2.654;2023-03-04T15:28:51;16.32;47.90
74661;SHT31;63191;39.566;2.654;2023-03-04T15:31:19;16.30;47.66
74661;SHT31;63191;39.566;2.654;2023-03-04T15:33:47;16.38;47.30
74661;SHT31;63191;39.566;2.654;2023-03-04T15:36:15;16.42;46.53
74661;SHT31;63191;39.566;2.654;2023-03-04T15:38:44;16.44;46.39
74661;SHT31;63191;39.566;2.654;2023-03-04T15:41:14;16.50;46.21
74661;SHT31;63191;39.566;2.654;2023-03-04T15:43:46;16.50;45.75
74661;SHT31;63191;39.566;2.654;2023-03-04T15:46:12;16.50;45.93
74661;SHT31;63191;39.566;2.654;2023-03-04T15:48:38;16.50;45.96
74661;SHT31;63191;39.566;2.654;2023-03-04T15:51:05;16.51;45.50
74661;SHT31;63191;39.566;2.654;2023-03-04T15:56:14;16.67;44.76
74661;SHT31;63191;39.566;2.654;2023-03-04T15:58:54;16.76;44.11
74661;SHT31;63191;39.566;2.654;2023-03-04T16:01:23;16.80;43.62
74661;SHT31;63191;39.566;2.654;2023-03-04T16:03:50;16.88;43.57
74661;SHT31;63191;39.566;2.654;2023-03-04T16:06:17;17.01;43.76
74661;SHT31;63191;39.566;2.654;2023-03-04T16:08:48;17.13;43.65
74661;SHT31;63191;39.566;2.654;2023-03-04T16:11:17;17.23;43.37
74661;SHT31;63191;39.566;2.654;2023-03-04T16:13:46;17.33;43.37
74661;SHT31;63191;39.566;2.654;2023-03-04T16:16:14;17.43;43.08
74661;SHT31;63191;39.566;2.654;2023-03-04T16:18:40;17.47;42.52
74661;SHT31;63191;39.566;2.654;2023-03-04T16:21:07;17.48;42.42
74661;SHT31;63191;39.566;2.654;2023-03-04T16:23:39;17.49;42.52
74661;SHT31;63191;39.566;2.654;2023-03-04T16:26:11;17.50;42.38
74661;SHT31;63191;39.566;2.654;2023-03-04T16:28:41;17.51;42.23
74661;SHT31;63191;39.566;2.654;2023-03-04T16:31:07;17.50;41.93
74661;SHT31;63191;39.566;2.654;2023-03-04T16:33:36;17.49;41.80
74661;SHT31;63191;39.566;2.654;2023-03-04T16:36:02;17.46;41.94
74661;SHT31;63191;39.566;2.654;2023-03-04T16:38:30;17.43;42.03
74661;SHT31;63191;39.566;2.654;2023-03-04T16:40:58;17.34;40.27
74661;SHT31;63191;39.566;2.654;2023-03-04T16:43:26;17.19;39.15
74661;SHT31;63191;39.566;2.654;2023-03-04T16:45:52;17.04;39.03
74661;SHT31;63191;39.566;2.654;2023-03-04T16:48:17;16.87;39.19
74661;SHT31;63191;39.566;2.654;2023-03-04T16:50:44;16.72;39.52
74661;SHT31;63191;39.566;2.654;2023-03-04T16:53:46;16.56;39.74
74661;SHT31;63191;39.566;2.654;2023-03-04T16:56:14;16.36;39.89
74661;SHT31;63191;39.566;2.654;2023-03-04T16:58:43;16.18;40.09
74661;SHT31;63191;39.566;2.654;2023-03-04T17:01:16;16.02;40.30
74661;SHT31;63191;39.566;2.654;2023-03-04T17:03:45;15.86;40.62
74661;SHT31;63191;39.566;2.654;2023-03-04T17:06:11;15.72;41.14
74661;SHT31;63191;39.566;2.654;2023-03-04T17:08:39;15.56;41.57
74661;SHT31;63191;39.566;2.654;2023-03-04T17:11:05;15.42;42.15
74661;SHT31;63191;39.566;2.654;2023-03-04T17:13:31;15.28;42.60
74661;SHT31;63191;39.566;2.654;2023-03-04T17:16:00;15.12;43.08
74661;SHT31;63191;39.566;2.654;2023-03-04T17:18:27;14.97;43.30
74661;SHT31;63191;39.566;2.654;2023-03-04T17:20:53;14.82;43.48
74661;SHT31;63191;39.566;2.654;2023-03-04T17:23:27;14.67;43.70
74661;SHT31;63191;39.566;2.654;2023-03-04T17:25:54;14.51;43.65
74661;SHT31;63191;39.566;2.654;2023-03-04T17:28:22;14.36;43.96
74661;SHT31;63191;39.566;2.654;2023-03-04T17:30:48;14.21;44.23
74661;SHT31;63191;39.566;2.654;2023-03-04T17:33:13;14.07;44.60
74661;SHT31;63191;39.566;2.654;2023-03-04T17:35:39;13.92;45.12
74661;SHT31;63191;39.566;2.654;2023-03-04T17:38:06;13.77;45.53
74661;SHT31;63191;39.566;2.654;2023-03-04T17:40:32;13.64;45.99
74661;SHT31;63191;39.566;2.654;2023-03-04T17:42:58;13.49;46.48
74661;SHT31;63191;39.566;2.654;2023-03-04T17:45:25;13.32;47.03
74661;SHT31;63191;39.566;2.654;2023-03-04T17:47:51;13.20;47.51
74661;SHT31;63191;39.566;2.654;2023-03-04T17:50:17;13.06;48.01
74661;SHT31;63191;39.566;2.654;2023-03-04T17:52:45;12.92;48.60
74661;SHT31;63191;39.566;2.654;2023-03-04T17:55:11;12.77;49.22